KMRN/MRN METAR and TAF weather

Enter ICAO airport designator
Station Type Date Time Source
KMRN METAR 2022/06/27 17:35 UTC NOAA

KMRN 271735Z AUTO 23004KT 10SM CLR 28/23 A3013 RMK AO2 T02750229


Station Type Date Time Source
KMRN Decoded METAR 2022/06/27 17:35 UTC NOAA

Morganton, Morganton-Lenoir Airport, NC, United States (KMRN) 35-49-17N 081-36-39W
Jun 27, 2022 - 01:35 PM EDT / 2022.06.27 1735 UTC
Wind: from the SW (230 degrees) at 5 MPH (4 KT):0
Visibility: 10 mile(s):0
Sky conditions: clear
Temperature: 81.5 F (27.5 C)
Dew Point: 73.2 F (22.9 C)
Relative Humidity: 76%
Pressure (altimeter): 30.13 in. Hg (1020 hPa)
ob: KMRN 271735Z AUTO 23004KT 10SM CLR 28/23 A3013 RMK AO2 T02750229
cycle: 17

Station Type Date Time Source
KMRN TAF UTC NOAA

Error!

Example: see airport list